createdAt,value
2022-08-28T00:00:49.742Z,21.13
2022-08-28T00:03:19.176Z,21.15
2022-08-28T00:05:51.462Z,21.15
2022-08-28T00:08:22.341Z,21.14
2022-08-28T00:10:53.988Z,21.13
2022-08-28T00:13:26.809Z,21.12
2022-08-28T00:16:01.336Z,21.13
2022-08-28T00:18:32.884Z,21.13
2022-08-28T00:21:05.289Z,21.11
2022-08-28T00:23:42.909Z,21.10
2022-08-28T00:26:33.716Z,21.10
2022-08-28T00:29:04.304Z,21.09
2022-08-28T00:31:36.269Z,21.10
2022-08-28T00:34:10.512Z,21.10
2022-08-28T00:36:41.520Z,21.10
2022-08-28T00:39:38.831Z,21.06
2022-08-28T00:42:16.633Z,21.02
2022-08-28T00:44:45.833Z,21.00
2022-08-28T00:47:19.195Z,20.97
2022-08-28T00:49:54.033Z,20.95
2022-08-28T00:52:27.371Z,20.93
2022-08-28T00:55:11.294Z,20.94
2022-08-28T00:57:52.833Z,20.94
2022-08-28T01:00:34.482Z,20.92
2022-08-28T01:03:06.167Z,20.88
2022-08-28T01:05:38.579Z,20.87
2022-08-28T01:08:07.994Z,20.80
2022-08-28T01:10:37.934Z,20.77
2022-08-28T01:13:08.083Z,20.71
2022-08-28T01:15:58.745Z,20.68
2022-08-28T01:19:15.138Z,20.57
2022-08-28T01:22:52.285Z,20.36
2022-08-28T01:25:55.908Z,20.28
2022-08-28T01:29:12.742Z,20.14
2022-08-28T01:31:43.405Z,20.08
2022-08-28T01:34:15.494Z,20.03
2022-08-28T01:36:44.858Z,20.02
2022-08-28T01:39:41.419Z,20.00
2022-08-28T01:42:12.744Z,19.96
2022-08-28T01:44:46.202Z,19.96
2022-08-28T01:47:18.311Z,19.97
2022-08-28T01:49:50.782Z,19.94
2022-08-28T01:52:26.405Z,19.93
2022-08-28T01:55:20.532Z,19.92
2022-08-28T01:58:12.082Z,19.89
2022-08-28T02:01:18.047Z,19.84
2022-08-28T02:04:13.539Z,19.79
2022-08-28T02:06:59.788Z,19.79
2022-08-28T02:09:34.890Z,19.82
2022-08-28T02:12:07.135Z,19.82
2022-08-28T02:14:53.803Z,19.81
2022-08-28T02:18:43.326Z,19.79
2022-08-28T02:21:17.517Z,19.75
2022-08-28T02:24:09.110Z,19.69
2022-08-28T02:26:46.164Z,19.56
2022-08-28T02:29:19.044Z,19.45
2022-08-28T02:31:54.665Z,19.37
2022-08-28T02:34:27.535Z,19.31
2022-08-28T02:37:00.118Z,19.27
2022-08-28T02:40:21.151Z,19.22
2022-08-28T02:42:52.875Z,19.13
2022-08-28T02:45:25.550Z,19.05
2022-08-28T02:49:03.112Z,18.97
2022-08-28T02:52:51.776Z,18.91
2022-08-28T02:56:24.899Z,18.84
2022-08-28T02:59:40.314Z,18.79
2022-08-28T03:02:45.435Z,18.74
2022-08-28T03:05:17.606Z,18.69
2022-08-28T03:07:50.672Z,18.69
2022-08-28T03:10:22.687Z,18.66
2022-08-28T03:12:55.183Z,18.64
2022-08-28T03:15:26.559Z,18.61
2022-08-28T03:17:56.483Z,18.59
2022-08-28T03:20:27.928Z,18.60
2022-08-28T03:23:15.739Z,18.60
2022-08-28T03:25:47.120Z,18.58
2022-08-28T03:28:16.819Z,18.58
2022-08-28T03:30:48.917Z,18.54
2022-08-28T03:33:18.722Z,18.51
2022-08-28T03:35:50.754Z,18.45
2022-08-28T03:38:21.827Z,18.43
2022-08-28T03:40:54.231Z,18.40
2022-08-28T03:43:27.764Z,18.39
2022-08-28T03:46:00.450Z,18.37
2022-08-28T03:48:45.872Z,18.33
2022-08-28T03:51:19.111Z,18.31
2022-08-28T03:54:17.438Z,18.26
2022-08-28T03:57:07.987Z,18.22
2022-08-28T04:00:00.932Z,18.16
2022-08-28T04:02:35.582Z,18.13
2022-08-28T04:05:28.824Z,18.13
2022-08-28T04:08:20.106Z,18.12
2022-08-28T04:11:01.752Z,18.12
2022-08-28T04:14:12.609Z,18.13
2022-08-28T04:17:28.137Z,18.16
2022-08-28T04:20:16.492Z,18.17
2022-08-28T04:22:58.937Z,18.18
2022-08-28T04:26:11.768Z,18.20
2022-08-28T04:28:56.095Z,18.22
2022-08-28T04:31:54.247Z,18.26
2022-08-28T04:34:24.993Z,18.31
2022-08-28T04:36:56.722Z,18.36
2022-08-28T04:39:31.279Z,18.40
2022-08-28T04:42:06.610Z,18.46
2022-08-28T04:44:36.022Z,18.51
2022-08-28T04:47:06.569Z,18.56
2022-08-28T04:49:36.732Z,18.62
2022-08-28T04:52:31.637Z,18.67
2022-08-28T04:55:02.018Z,18.74
2022-08-28T04:57:36.623Z,18.81
2022-08-28T05:00:10.404Z,18.91
2022-08-28T05:02:44.067Z,18.99
2022-08-28T05:05:16.056Z,19.08
2022-08-28T05:07:48.217Z,19.17
2022-08-28T05:10:18.286Z,19.29
2022-08-28T05:12:48.135Z,19.39
2022-08-28T05:15:18.548Z,19.52
2022-08-28T05:17:48.970Z,19.65
2022-08-28T05:20:59.298Z,19.78
2022-08-28T05:23:32.559Z,19.95
2022-08-28T05:26:10.031Z,20.10
2022-08-28T05:28:41.789Z,20.23
2022-08-28T05:31:22.440Z,20.37
2022-08-28T05:33:53.142Z,20.49
2022-08-28T05:36:25.865Z,20.65
2022-08-28T05:39:07.001Z,20.81
2022-08-28T05:41:40.602Z,20.98
2022-08-28T05:44:14.541Z,21.12
2022-08-28T05:46:48.078Z,21.26
2022-08-28T05:49:24.199Z,21.37
2022-08-28T05:51:58.935Z,21.51
2022-08-28T05:54:29.149Z,21.65
2022-08-28T05:57:02.084Z,21.79
2022-08-28T06:00:00.022Z,21.91
2022-08-28T06:03:09.670Z,22.06
2022-08-28T06:05:41.119Z,22.15
2022-08-28T06:08:23.310Z,22.21
2022-08-28T06:10:53.726Z,22.29
2022-08-28T06:13:25.176Z,22.37
2022-08-28T06:19:41.305Z,22.66
2022-08-28T12:14:57.243Z,36.96
2022-08-28T12:17:49.886Z,37.33
2022-08-28T12:21:21.789Z,37.27
2022-08-28T12:24:59.140Z,37.16
2022-08-28T12:28:27.016Z,36.98
2022-08-28T12:31:22.807Z,36.93
2022-08-28T12:34:09.560Z,36.36
2022-08-28T12:36:42.020Z,35.85
2022-08-28T12:39:39.535Z,35.68
2022-08-28T12:42:19.624Z,35.69
2022-08-28T12:44:51.954Z,35.42
2022-08-28T12:47:25.278Z,35.52
2022-08-28T12:49:57.888Z,35.66
2022-08-28T12:52:29.445Z,35.83
2022-08-28T12:55:24.600Z,35.98
2022-08-28T12:57:57.511Z,36.12
2022-08-28T13:00:33.429Z,36.09
2022-08-28T13:03:03.639Z,36.10
2022-08-28T13:05:43.957Z,36.18
2022-08-28T13:08:14.349Z,36.37
2022-08-28T13:10:50.974Z,36.40
2022-08-28T13:13:51.090Z,36.63
2022-08-28T13:16:47.078Z,36.61
2022-08-28T13:19:35.182Z,36.41
2022-08-28T13:22:13.826Z,36.32
2022-08-28T13:24:46.227Z,36.14
2022-08-28T13:27:21.405Z,35.93
2022-08-28T13:29:57.302Z,35.74
2022-08-28T13:32:40.371Z,35.60
2022-08-28T13:35:19.679Z,35.44
2022-08-28T13:38:13.425Z,35.41
2022-08-28T13:41:13.542Z,35.23
2022-08-28T13:44:08.861Z,35.11
2022-08-28T13:46:40.717Z,35.04
2022-08-28T13:49:11.798Z,35.07
2022-08-28T13:51:45.865Z,34.86
2022-08-28T13:54:16.185Z,34.77
2022-08-28T13:56:47.385Z,34.86
2022-08-28T13:59:17.972Z,34.95
2022-08-28T14:02:09.591Z,34.87
2022-08-28T14:04:42.704Z,34.58
2022-08-28T14:07:15.877Z,34.41
2022-08-28T14:09:55.548Z,34.16
2022-08-28T14:12:33.055Z,34.04
2022-08-28T14:15:08.908Z,33.72
2022-08-28T14:18:00.048Z,33.38
2022-08-28T14:20:29.778Z,33.14
2022-08-28T14:23:01.338Z,32.88
2022-08-28T14:25:33.780Z,32.75
2022-08-28T14:28:09.067Z,32.66
2022-08-28T14:30:50.519Z,32.40
2022-08-28T14:33:22.239Z,32.17
2022-08-28T14:35:53.219Z,32.12
2022-08-28T14:38:23.758Z,32.15
2022-08-28T14:40:59.789Z,32.17
2022-08-28T14:43:31.993Z,32.05
2022-08-28T14:46:07.260Z,32.04
2022-08-28T14:48:39.821Z,32.14
2022-08-28T14:51:09.259Z,32.36
2022-08-28T14:53:39.918Z,32.40
2022-08-28T14:56:11.210Z,32.31
2022-08-28T14:58:42.321Z,32.18
2022-08-28T15:01:25.468Z,32.04
2022-08-28T15:04:15.019Z,31.83
2022-08-28T15:06:47.882Z,31.71
2022-08-28T15:09:19.245Z,31.61
2022-08-28T15:11:50.803Z,31.50
2022-08-28T15:14:20.195Z,31.41
2022-08-28T15:16:53.904Z,31.33
2022-08-28T15:19:25.224Z,31.18
2022-08-28T15:21:56.779Z,31.08
2022-08-28T15:24:31.824Z,30.90
2022-08-28T15:27:05.622Z,30.78
2022-08-28T15:29:36.119Z,30.71
2022-08-28T15:32:06.521Z,30.68
2022-08-28T15:34:36.860Z,30.59
2022-08-28T15:37:10.434Z,30.52
2022-08-28T15:40:14.711Z,30.43
2022-08-28T15:42:49.030Z,30.38
2022-08-28T15:45:21.086Z,30.35
2022-08-28T15:47:50.837Z,30.32
2022-08-28T15:50:21.914Z,30.21
2022-08-28T15:52:54.043Z,30.10
2022-08-28T15:55:25.612Z,30.09
2022-08-28T15:57:58.123Z,30.05
2022-08-28T16:00:30.098Z,29.90
2022-08-28T16:03:03.921Z,29.75
2022-08-28T16:05:39.733Z,29.64
2022-08-28T16:08:13.127Z,29.59
2022-08-28T16:10:49.777Z,29.58
2022-08-28T16:13:21.802Z,29.50
2022-08-28T16:15:52.588Z,29.40
2022-08-28T16:18:34.904Z,29.24
2022-08-28T16:21:08.216Z,29.05
2022-08-28T16:23:50.109Z,28.85
2022-08-28T16:26:24.579Z,28.74
2022-08-28T16:28:58.226Z,28.71
2022-08-28T16:31:28.082Z,28.65
2022-08-28T16:33:59.161Z,28.54
2022-08-28T16:36:28.889Z,28.43
2022-08-28T16:39:04.283Z,28.32
2022-08-28T16:41:34.587Z,28.22
2022-08-28T16:44:30.462Z,28.13
2022-08-28T16:47:02.990Z,28.03
2022-08-28T16:49:32.788Z,27.85
2022-08-28T16:52:03.827Z,27.78
2022-08-28T16:54:36.404Z,27.70
2022-08-28T16:57:06.122Z,27.57
2022-08-28T16:59:40.390Z,27.51
2022-08-28T17:02:13.413Z,27.42
2022-08-28T17:04:45.208Z,27.35
2022-08-28T17:07:17.619Z,27.26
2022-08-28T17:09:49.577Z,27.17
2022-08-28T17:12:22.327Z,27.15
2022-08-28T17:14:53.086Z,27.12
2022-08-28T17:17:24.333Z,27.06
2022-08-28T17:19:54.827Z,27.01
2022-08-28T17:22:35.226Z,26.98
2022-08-28T17:25:15.938Z,26.92
2022-08-28T17:27:45.765Z,26.90
2022-08-28T17:30:18.673Z,26.87
2022-08-28T17:32:49.341Z,26.86
2022-08-28T17:36:04.941Z,26.79
2022-08-28T17:39:57.578Z,26.71
2022-08-28T17:46:38.585Z,26.57
2022-08-28T17:49:30.080Z,26.50
2022-08-28T17:52:00.122Z,26.40
2022-08-28T17:55:04.721Z,26.45
2022-08-28T17:57:34.787Z,26.40
2022-08-28T18:00:10.204Z,26.37
2022-08-28T18:09:23.941Z,26.14
2022-08-28T18:11:58.105Z,26.06
2022-08-28T18:14:31.674Z,25.91
2022-08-28T18:17:03.907Z,25.80
2022-08-28T18:19:35.134Z,25.65
2022-08-28T18:22:07.012Z,25.57
2022-08-28T18:24:39.686Z,25.52
2022-08-28T18:27:13.888Z,25.52
2022-08-28T18:29:44.767Z,25.47
2022-08-28T18:32:15.888Z,25.39
2022-08-28T18:34:48.854Z,25.27
2022-08-28T18:37:20.602Z,25.10
2022-08-28T18:41:06.501Z,24.97
2022-08-28T18:43:37.533Z,24.86
2022-08-28T18:46:10.125Z,24.73
2022-08-28T18:48:42.158Z,24.65
2022-08-28T18:51:13.216Z,24.63
2022-08-28T18:53:45.747Z,24.57
2022-08-28T18:56:17.526Z,24.54
2022-08-28T19:11:50.846Z,24.24
2022-08-28T19:14:23.793Z,24.19
2022-08-28T19:17:01.056Z,24.19
2022-08-28T19:19:35.755Z,24.13
2022-08-28T19:22:06.986Z,24.11
2022-08-28T19:24:36.795Z,24.13
2022-08-28T19:27:07.525Z,24.15
2022-08-28T19:29:40.306Z,24.16
2022-08-28T19:32:11.293Z,24.20
2022-08-28T19:34:43.080Z,24.22
2022-08-28T19:37:12.660Z,24.23
2022-08-28T19:40:56.578Z,24.23
2022-08-28T19:46:38.219Z,24.21
2022-08-28T19:49:10.494Z,24.19
2022-08-28T19:51:41.842Z,24.19
2022-08-28T19:54:16.379Z,24.17
2022-08-28T19:56:46.151Z,24.19
2022-08-28T19:59:18.119Z,24.13
2022-08-28T20:01:48.491Z,24.09
2022-08-28T20:04:19.461Z,24.01
2022-08-28T20:06:49.866Z,24.04
2022-08-28T20:09:23.747Z,24.06
2022-08-28T20:12:34.931Z,24.03
2022-08-28T20:31:01.922Z,23.71
2022-08-28T20:33:34.861Z,23.36
2022-08-28T20:36:06.483Z,23.09
2022-08-28T20:38:45.347Z,22.83
2022-08-28T20:41:20.621Z,22.59
2022-08-28T20:43:53.230Z,22.42
2022-08-28T20:46:30.654Z,22.31
2022-08-28T20:49:00.991Z,22.22
2022-08-28T20:51:50.357Z,22.20
2022-08-28T20:54:37.477Z,22.22
2022-08-28T20:57:15.767Z,22.27
2022-08-28T20:59:49.953Z,22.34
2022-08-28T21:02:22.752Z,22.40
2022-08-28T21:04:55.398Z,22.49
2022-08-28T21:07:29.220Z,22.46
2022-08-28T21:10:06.182Z,22.37
2022-08-28T21:12:40.765Z,22.29
2022-08-28T21:15:14.485Z,22.24
2022-08-28T21:17:48.266Z,22.25
2022-08-28T21:20:22.290Z,22.35
2022-08-28T21:22:58.155Z,22.44
2022-08-28T21:25:29.268Z,22.42
2022-08-28T21:28:04.281Z,22.29
2022-08-28T21:30:45.492Z,22.07
2022-08-28T21:33:15.863Z,21.88
2022-08-28T21:35:48.439Z,21.71
2022-08-28T21:38:19.101Z,21.62
2022-08-28T21:40:50.077Z,21.58
2022-08-28T21:43:20.459Z,21.68
2022-08-28T21:46:13.743Z,21.88
2022-08-28T21:48:51.662Z,22.06
2022-08-28T21:51:24.830Z,22.13
2022-08-28T21:53:54.432Z,22.07
2022-08-28T21:56:27.953Z,22.00
2022-08-28T21:58:59.266Z,21.94
2022-08-28T22:01:30.125Z,21.92
2022-08-28T22:04:01.022Z,21.99
2022-08-28T22:06:32.183Z,22.05
2022-08-28T22:09:04.074Z,22.05
2022-08-28T22:11:34.638Z,22.03
2022-08-28T22:14:04.663Z,22.03
2022-08-28T22:16:37.496Z,22.00
2022-08-28T22:19:06.976Z,21.93
2022-08-28T22:22:23.632Z,21.87
2022-08-28T22:24:59.040Z,21.86
2022-08-28T22:27:32.559Z,21.80
2022-08-28T22:30:07.164Z,21.76
2022-08-28T22:32:40.500Z,21.76
2022-08-28T22:35:13.001Z,21.75
2022-08-28T22:37:47.666Z,21.68
2022-08-28T22:40:45.231Z,21.63
2022-08-28T22:43:19.379Z,21.54
2022-08-28T22:45:50.378Z,21.42
2022-08-28T22:48:33.714Z,21.36
2022-08-28T22:51:10.105Z,21.33
2022-08-28T22:53:43.633Z,21.34
2022-08-28T22:56:16.167Z,21.34
2022-08-28T22:58:50.376Z,21.29
2022-08-28T23:01:25.845Z,21.25
2022-08-28T23:03:55.258Z,21.24
2022-08-28T23:06:28.216Z,21.20
2022-08-28T23:09:21.428Z,21.04
2022-08-28T23:12:11.774Z,20.90
2022-08-28T23:14:48.417Z,20.67
2022-08-28T23:17:22.288Z,20.51
2022-08-28T23:20:06.055Z,20.45
2022-08-28T23:22:36.666Z,20.53
2022-08-28T23:25:10.036Z,20.59
2022-08-28T23:27:41.533Z,20.59
2022-08-28T23:30:16.020Z,20.53
2022-08-28T23:32:48.044Z,20.48
2022-08-28T23:35:20.111Z,20.52
2022-08-28T23:37:52.067Z,20.49
2022-08-28T23:40:28.141Z,20.50
2022-08-28T23:43:02.694Z,20.53
2022-08-28T23:50:20.230Z,20.51
2022-08-28T23:52:53.710Z,20.50
2022-08-28T23:55:27.818Z,20.50
2022-08-28T23:57:58.822Z,20.51
